Terminal Aerodrome Forecast
Issued by NWS

Current Version | Previous Version | Text Only | Print | Product List | Glossary Off
Versions: 1 2 3 4 5 6 7 8 9 10 11 12 13 14 15 16 17 18 19 20 21 22

000
FTUS41 KPBZ 292100 AAA
TAFHLG
TAF AMD
KHLG 292105Z 2921/3018 20010G18KT P6SM OVC025
     FM300000 25012G24KT 2SM -SHSN OVC008
     FM300900 29012G24KT 3SM -SHSN OVC012=

USA.gov is the U.S. government's official web portal to all federal, state and local government web resources and services.